This is the latest recevied weather packets stored in our database for station/object WX5KDM. If no packets are shown the sender has not sent any weather packets the latest 10 day(s).
| Time | Temp. | Humidity | Pressure | Rain* | Wind** | Luminosity | Snow |
|---|---|---|---|---|---|---|---|
| 1788012621 | 27.22° C | 72% | 1020.5 hPa | 0 mm | - | - | - |
| 1788012316 | 27.22° C | 71% | 1020.5 hPa | 0 mm | - | - | - |
| 1788012011 | 26.11° C | 74% | 1020.5 hPa | 0 mm | - | - | - |
| 1788011709 | 26.67° C | 73% | 1020.3 hPa | 0 mm | - | - | - |
| 1788011404 | 26.67° C | 74% | 1020.3 hPa | 0 mm | - | - | - |
| 1788011104 | 25.56° C | 76% | 1020.3 hPa | 0 mm | - | - | - |
| 1788010799 | 25.56° C | 79% | 1020 hPa | 0 mm | - | - | - |
| 1788010498 | 25° C | 80% | 1020.1 hPa | 0 mm | - | - | - |
| 1788010193 | 24.44° C | 81% | 1020 hPa | 0 mm | - | - | - |
| 1788009891 | 24.44° C | 79% | 1019.9 hPa | 0 mm | - | - | - |
| 1788009589 | 24.44° C | 81% | 1019.9 hPa | 0 mm | - | - | - |
| 1788009284 | 24.44° C | 80% | 1019.9 hPa | 0 mm | - | - | - |
| 1788008979 | 24.44° C | 79% | 1019.9 hPa | 0 mm | - | - | - |
| 1788008676 | 24.44° C | 80% | 1019.8 hPa | 0 mm | - | - | - |
| 1788008373 | 23.89° C | 81% | 1019.8 hPa | 0 mm | - | - | - |
| 1788008071 | 22.78° C | 87% | 1019.7 hPa | 0 mm | - | - | - |
| 1788007770 | 22.22° C | 89% | 1019.6 hPa | 0 mm | - | - | - |
| 1788007465 | 21.67° C | 90% | 1019.5 hPa | 0 mm | - | - | - |
| 1788007164 | 21.11° C | 91% | 1019.5 hPa | 0 mm | - | - | - |
| 1788006864 | 20.56° C | 92% | 1019.5 hPa | 0 mm | - | - | - |
| 1788006559 | 20.56° C | 92% | 1019.7 hPa | 0 mm | - | - | - |
| 1788006259 | 20.56° C | 92% | 1019.6 hPa | 0 mm | - | - | - |
| 1788005958 | 20° C | 94% | 1019.6 hPa | 0 mm | - | - | - |
| 1788005653 | 20.56° C | 96% | 1019.6 hPa | 0 mm | - | - | - |
| 1788005353 | 20° C | 97% | 1019.7 hPa | 0 mm | - | - | - |
* Rain latest hour (hover to see other rain measurements)
** Current wind speed in m/s (hover to see current wind gust speed)